Aérodrome :
LOGIN :

S'inscrire | Disclaimer

   EN    FR    IT 

 










Légende :    VFR   VFR Marginal   IFR   IFR Intensif   IFR Très Intensif
Visi : 
Plafond : 
>= 8 km
>= 3000ft
5 à 8 km
1000 à 3000 ft
1500m à 5 km
500 à 1000 ft
800 à 1500m
200 à 500 ft
< 800m
< 200 ft
Symboles :   Orages  Brouillard  Fortes neiges  Fortes précipitations  Vent > 20 kt
SIGMETs :   Divers  Orages  Givrage  Turbulence  Onde Orograph.  Cendres Volcan.







- Altitude de l'aérodrome : 157 ft
- Code IATA : LIL
- Voir les cartes d'approche


LFQQ - Lille Lesquin

DERNIER METAR :
  • 202030Z AUTO 02006KT 5000 BR OVC004 04/03 Q1003 BECMG BKN016

METARs EXPIRÉS :
  • 202000Z AUTO 02008KT 5000 BR OVC004 04/03 Q1002 BECMG BKN016
  • 201930Z AUTO 04005KT 4500 BR OVC003 04/04 Q1001 BECMG 9999 NSW BKN016
  • 201900Z AUTO 04006KT 4000 BR OVC002 04/04 Q1001 BECMG 9999 NSW BKN016
  • 201830Z AUTO 03005KT 5000 BR OVC004 04/04 Q1000 TEMPO 2000 DZRA BECMG BKN016
  • 201800Z AUTO 04003KT 5000 BR OVC009 04/04 Q0999 TEMPO 2000 DZRA OVC003

TAF AMD TAF LFQQ
Valide du 20 à 20h jusqu'au 22 à 00h UTC


202010Z 2020/2124 36007KT 8000 OVC006
TEMPO 2020/2023 3000 DZRA OVC004
FM210000 33008KT 8000 OVC012
BECMG 2102/2105 SCT016
BECMG 2114/2116 16010KT OVC010
TEMPO 2116/2124 2000 RADZ OVC004
PROB30
TEMPO 2116/2118 RASN
ATIS : +33 3 20 16 19 54
Pas de NOTAMs connus pour ce terrain.
2 SIGMETs publiés pour la FIR Paris (LFFF) :
 
Turbulence forte
LFFF SIGMET 8 VALID 202100/210100 LFPW
LFFF PARIS FIR/UIR SEV TURB FCST NE OF LINE N5100 E00145 - N4815 E00530 FL180/290 MOV NE 20KT NC=
Turbulence forte
LFFF SIGMET 7 VALID 201700/202100 LFPW
LFFF PARIS FIR/UIR SEV TURB FCST NE OF LINE N4815 E00515 - N5045 E00100 FL180/310 MOV NE 15KT NC=



MET'MAP, la Météo Aéronautique d'un coup d'oeil ! - Copyright ORBIFLY Décembre 2007 - Disclaimer

ORBIFLY MET'MAP TEAM :

Programmation & Développement : Alexandra Zaïnal
Conception & Développement : Baudouin d'Aumeries
Co-Programmation & Développement : Marc-Olivier Méhu
Soutien technique & logistique : Manuel Goepfert

Contact : metmap@orbifly.com




SOURCES & CREDITS :

   NOAA